Time;durP1;ratioP1;P1;durP2;ratioP2;P2;SDS_P1;SDS_P2;PMS_P1;PMS_P2;Temp;Humidity;BMP_temperature;BMP_pressure;BME280_temperature;BME280_humidity;BME280_pressure;Samples;Min_cycle;Max_cycle;Signal;HPM_P1;HPM_P2
2022/01/24 00:07:32;;;;;;;56.50;31.20;;;;;;;-2.03;80.10;101226.20;431567;1274;143190;-60
2022/01/24 00:17:41;;;;;;;62.50;31.30;;;;;;;-2.10;80.24;101225.91;430351;1273;142834;-62
2022/01/24 00:27:47;;;;;;;50.00;30.40;;;;;;;-2.20;80.20;101218.22;431372;1274;142389;-61
2022/01/24 00:37:58;;;;;;;48.80;29.80;;;;;;;-2.47;80.06;101219.20;429919;1274;143350;-62
2022/01/24 00:48:30;;;;;;;51.40;30.00;;;;;;;-2.69;80.51;101228.27;431130;1274;142730;-62
2022/01/24 00:58:36;;;;;;;44.10;26.70;;;;;;;-2.75;80.70;101228.15;430791;1273;141924;-63
2022/01/24 01:19:06;;;;;;;49.50;31.20;;;;;;;-2.75;80.83;101225.59;432003;1273;142777;-61
2022/01/24 01:29:17;;;;;;;46.30;30.70;;;;;;;-2.81;81.06;101227.55;429153;1273;145935;-60
2022/01/24 01:39:43;;;;;;;47.30;30.40;;;;;;;-2.84;81.10;101224.07;430821;1273;142333;-62
2022/01/24 02:00:14;;;;;;;52.70;32.20;;;;;;;-2.94;81.19;101235.20;430296;1273;142336;-63
2022/01/24 02:10:22;;;;;;;48.50;31.70;;;;;;;-3.03;81.49;101221.35;430332;1273;142970;-61
2022/01/24 02:20:42;;;;;;;50.30;35.20;;;;;;;-3.13;81.32;101220.63;430893;1274;142729;-61
2022/01/24 02:30:59;;;;;;;59.60;37.30;;;;;;;-3.18;81.53;101227.55;430478;1273;143942;-61
2022/01/24 02:51:45;;;;;;;59.80;36.80;;;;;;;-3.16;81.60;101238.55;431045;1274;127949;-61
2022/01/24 03:01:51;;;;;;;64.40;37.40;;;;;;;-3.12;81.60;101241.04;431469;1273;142980;-63
2022/01/24 03:12:07;;;;;;;63.10;40.20;;;;;;;-3.15;81.63;101241.48;432760;1273;142805;-61
2022/01/24 03:22:13;;;;;;;73.00;43.70;;;;;;;-3.23;81.58;101237.40;431196;1275;143890;-65
2022/01/24 03:32:19;;;;;;;67.60;39.20;;;;;;;-3.33;81.44;101241.85;430416;1274;142290;-63
2022/01/24 03:42:24;;;;;;;64.90;39.90;;;;;;;-3.41;81.43;101236.71;431447;1273;143661;-64
2022/01/24 03:52:31;;;;;;;49.80;29.60;;;;;;;-3.50;81.34;101244.59;431716;1274;143621;-62
2022/01/24 04:02:35;;;;;;;;;;;;;;;-3.54;81.48;101242.46;429846;1274;145324;-62
2022/01/24 04:12:41;;;;;;;56.40;37.30;;;;;;;-3.54;81.61;101234.77;430448;1274;129185;-61
2022/01/24 04:23:01;;;;;;;70.10;38.50;;;;;;;-3.56;81.56;101228.70;429756;1275;142074;-61
2022/01/24 04:33:07;;;;;;;67.60;39.80;;;;;;;-3.48;81.58;101226.13;430879;1274;142526;-61
2022/01/24 04:43:29;;;;;;;66.60;37.80;;;;;;;-3.46;81.49;101236.61;430787;1276;143769;-61
2022/01/24 05:04:04;;;;;;;58.40;36.10;;;;;;;-3.39;81.78;101238.13;431906;1276;142485;-60
2022/01/24 05:24:34;;;;;;;55.60;35.20;;;;;;;-3.40;81.78;101247.20;430421;1274;143288;-59
2022/01/24 05:34:39;;;;;;;55.30;36.20;;;;;;;-3.39;81.79;101256.48;431431;1274;142630;-64
2022/01/24 05:44:45;;;;;;;67.80;37.90;;;;;;;-3.43;81.73;101261.51;432381;1274;142021;-61
2022/01/24 05:54:51;;;;;;;68.80;37.00;;;;;;;-3.45;81.82;101252.91;432489;1273;195975;-62
2022/01/24 06:04:57;;;;;;;57.40;35.60;;;;;;;-3.42;81.80;101262.89;430805;1273;143240;-60
2022/01/24 06:15:03;;;;;;;55.20;37.70;;;;;;;-3.42;81.79;101281.39;432045;1273;142146;-62
2022/01/24 06:25:13;;;;;;;57.90;35.90;;;;;;;-3.42;81.84;101278.83;431238;1273;142232;-61
2022/01/24 06:35:20;;;;;;;64.50;37.80;;;;;;;-3.42;81.80;101282.94;431073;1273;142282;-61
2022/01/24 06:45:28;;;;;;;62.60;39.40;;;;;;;-3.41;81.73;101283.30;431692;1273;142261;-62
2022/01/24 06:55:34;;;;;;;68.20;40.10;;;;;;;-3.40;81.74;101284.53;431020;1273;142898;-61
2022/01/24 07:05:40;;;;;;;61.90;39.40;;;;;;;-3.39;81.74;101280.95;431762;1273;141805;-62
2022/01/24 07:15:49;;;;;;;58.10;37.60;;;;;;;-3.31;81.81;101287.43;430839;1273;148276;-63
2022/01/24 07:25:56;;;;;;;63.90;39.70;;;;;;;-3.16;81.72;101302.65;430524;1273;141908;-61
2022/01/24 07:36:01;;;;;;;60.40;38.30;;;;;;;-2.93;81.59;101317.31;430810;1273;142370;-60
2022/01/24 07:46:07;;;;;;;58.80;39.60;;;;;;;-2.70;81.29;101327.86;431438;1273;142368;-64
2022/01/24 07:56:14;;;;;;;58.30;37.20;;;;;;;-2.41;81.21;101328.70;429800;1273;142175;-61
2022/01/24 08:06:20;;;;;;;64.30;42.00;;;;;;;-2.00;81.14;101332.48;431524;1273;142515;-62
2022/01/24 08:16:27;;;;;;;52.90;37.10;;;;;;;-1.65;80.62;101329.91;431629;1273;146967;-61
2022/01/24 08:26:39;;;;;;;58.30;35.20;;;;;;;-1.42;80.33;101320.94;431550;1273;142846;-69
2022/01/24 08:36:45;;;;;;;55.40;35.50;;;;;;;-1.46;79.96;101317.98;432001;1273;141725;-64
2022/01/24 08:46:51;;;;;;;48.40;32.80;;;;;;;-1.36;79.61;101304.18;430798;1273;142406;-68
2022/01/24 08:56:57;;;;;;;51.60;33.50;;;;;;;-1.14;79.35;101301.52;432724;1273;142315;-64
2022/01/24 09:07:06;;;;;;;50.40;33.00;;;;;;;-0.94;79.12;101316.05;430914;1273;145368;-64
2022/01/24 09:17:12;;;;;;;52.80;35.80;;;;;;;-0.66;78.72;101315.98;430067;1273;142170;-75
2022/01/24 09:27:18;;;;;;;56.70;34.40;;;;;;;-0.40;78.39;101321.05;431549;1273;142079;-61
2022/01/24 09:37:24;;;;;;;55.40;36.40;;;;;;;0.02;78.39;101326.38;431549;1274;142287;-63
2022/01/24 09:47:31;;;;;;;53.30;35.00;;;;;;;0.70;77.80;101316.79;430697;1274;142468;-69
2022/01/24 09:57:37;;;;;;;55.20;34.40;;;;;;;1.42;76.82;101304.08;432056;1274;141999;-62
2022/01/24 10:07:49;;;;;;;43.90;30.40;;;;;;;1.85;75.97;101300.48;430841;1274;153437;-65
2022/01/24 10:17:56;;;;;;;52.00;33.60;;;;;;;2.12;75.41;101289.39;431268;1273;146699;-62
2022/01/24 10:28:06;;;;;;;55.40;33.50;;;;;;;2.41;74.77;101278.25;430815;1273;142251;-60
2022/01/24 10:38:25;;;;;;;48.50;32.30;;;;;;;2.50;73.87;101271.50;431411;1272;228201;-60
2022/01/24 10:48:34;;;;;;;50.30;31.10;;;;;;;2.43;73.55;101263.04;431121;1273;145987;-60
2022/01/24 10:58:39;;;;;;;38.70;26.00;;;;;;;2.32;73.39;101257.71;431059;1274;141794;-58
2022/01/24 11:08:45;;;;;;;35.50;22.50;;;;;;;2.08;73.06;101249.48;431632;1273;142326;-66
2022/01/24 11:18:52;;;;;;;37.40;23.90;;;;;;;1.75;72.99;101240.20;431808;1273;143070;-64
2022/01/24 11:28:58;;;;;;;38.30;24.00;;;;;;;1.68;73.11;101228.83;432560;1273;142309;-65
2022/01/24 11:39:06;;;;;;;41.10;25.40;;;;;;;1.77;73.19;101227.79;431089;1273;144256;-68
2022/01/24 11:49:13;;;;;;;41.40;26.30;;;;;;;1.83;73.05;101218.27;436255;1273;142264;-67
2022/01/24 11:59:25;;;;;;;45.40;27.50;;;;;;;1.72;72.88;101217.41;433162;1273;143385;-71
2022/01/24 12:09:31;;;;;;;48.40;29.30;;;;;;;1.44;72.82;101216.59;432457;1273;142206;-65
2022/01/24 12:19:40;;;;;;;48.00;31.90;;;;;;;1.35;73.23;101202.08;429846;1273;142790;-64
2022/01/24 12:29:51;;;;;;;41.20;28.50;;;;;;;1.30;73.06;101188.80;430746;1273;210052;-62
2022/01/24 12:40:03;;;;;;;50.90;31.40;;;;;;;1.20;73.09;101186.39;431567;1273;142128;-63
2022/01/24 12:50:14;;;;;;;48.60;30.00;;;;;;;1.14;73.31;101169.13;430400;1273;142835;-62
2022/01/24 13:00:21;;;;;;;47.10;29.90;;;;;;;1.08;73.16;101162.05;431325;1273;147284;-64
2022/01/24 13:10:30;;;;;;;45.00;28.70;;;;;;;1.03;73.09;101159.12;430703;1273;142685;-65
2022/01/24 13:31:03;;;;;;;43.20;28.10;;;;;;;0.71;73.45;101157.70;432246;1273;143194;-71
2022/01/24 13:41:11;;;;;;;39.30;25.00;;;;;;;0.70;73.57;101145.98;440513;1273;145568;-68
2022/01/24 13:51:19;;;;;;;40.50;27.70;;;;;;;0.58;73.30;101144.74;435848;1274;142200;-64
2022/01/24 14:01:24;;;;;;;40.30;27.10;;;;;;;0.50;73.33;101136.80;430916;1273;200610;-60
2022/01/24 14:11:31;;;;;;;48.20;33.80;;;;;;;0.42;73.48;101130.58;430052;1274;143293;-62
2022/01/24 14:21:38;;;;;;;50.90;31.60;;;;;;;0.34;73.66;101136.58;430757;1273;142287;-61
2022/01/24 14:31:47;;;;;;;49.50;31.80;;;;;;;0.24;73.96;101145.33;429652;1273;143683;-62
2022/01/24 14:41:53;;;;;;;45.80;30.20;;;;;;;0.12;74.06;101148.55;430573;1273;142091;-60
2022/01/24 14:52:03;;;;;;;51.00;33.10;;;;;;;0.06;74.27;101154.73;430669;1273;143010;-66
2022/01/24 15:02:10;;;;;;;52.80;31.70;;;;;;;0.00;74.58;101161.58;429894;1273;143590;-67
2022/01/24 15:12:21;;;;;;;45.30;30.10;;;;;;;-0.05;74.68;101160.88;430163;1273;140850;-75
2022/01/24 15:32:51;;;;;;;52.40;33.90;;;;;;;-0.20;74.86;101136.86;430313;1273;142274;-66
2022/01/24 15:43:03;;;;;;;46.00;30.00;;;;;;;-0.25;74.96;101133.74;431226;1273;141431;-61
2022/01/24 15:53:09;;;;;;;42.90;29.10;;;;;;;-0.29;74.92;101124.09;430188;1273;141492;-62
2022/01/24 16:03:15;;;;;;;37.00;26.90;;;;;;;-0.33;75.05;101124.39;430701;1273;141495;-63
2022/01/24 16:13:22;;;;;;;42.40;27.90;;;;;;;-0.37;75.41;101120.94;430609;1273;142518;-66
2022/01/24 16:23:31;;;;;;;41.00;26.00;;;;;;;-0.41;75.16;101118.16;429806;1273;141597;-65
2022/01/24 16:33:38;;;;;;;42.60;28.30;;;;;;;-0.43;75.38;101106.27;430895;1273;144115;-60
2022/01/24 16:44:03;;;;;;;42.00;28.00;;;;;;;-0.49;75.58;101097.13;430129;1273;142508;-61
2022/01/24 16:54:13;;;;;;;49.40;33.90;;;;;;;-0.55;75.41;101104.65;430575;1273;143809;-60
2022/01/24 17:04:21;;;;;;;47.10;30.20;;;;;;;-0.59;75.85;101104.11;430680;1273;143089;-68
2022/01/24 17:14:31;;;;;;;50.30;32.80;;;;;;;-0.53;75.92;101101.92;429247;1273;142061;-68
2022/01/24 17:24:37;;;;;;;46.00;32.30;;;;;;;-0.47;75.99;101104.36;431269;1272;143155;-68
2022/01/24 17:34:54;;;;;;;47.40;32.90;;;;;;;-0.43;76.05;101107.13;430268;1273;141591;-69
2022/01/24 17:45:00;;;;;;;52.20;32.20;;;;;;;-0.40;76.08;101106.98;431209;1273;142013;-69
2022/01/24 17:55:08;;;;;;;60.30;39.30;;;;;;;-0.40;76.12;101109.39;431104;1273;141723;-67
2022/01/24 18:05:15;;;;;;;57.60;35.70;;;;;;;-0.37;76.04;101104.94;430635;1273;142585;-64
2022/01/24 18:15:22;;;;;;;47.30;31.80;;;;;;;-0.37;76.15;101090.83;431074;1272;141345;-68
2022/01/24 18:25:28;;;;;;;62.50;38.10;;;;;;;-0.39;75.99;101084.80;430893;1273;142768;-67
2022/01/24 18:35:35;;;;;;;63.90;38.60;;;;;;;-0.43;76.07;101079.97;430695;1273;143059;-67
2022/01/24 18:45:41;;;;;;;62.60;38.00;;;;;;;-0.46;76.39;101078.40;431492;1273;143716;-70
2022/01/24 18:55:48;;;;;;;72.30;42.30;;;;;;;-0.50;76.47;101076.81;430265;1273;143951;-68
2022/01/24 19:05:53;;;;;;;66.40;39.70;;;;;;;-0.50;76.35;101080.78;431829;1273;145249;-65
2022/01/24 19:16:01;;;;;;;52.80;34.50;;;;;;;-0.53;76.76;101073.19;431262;1273;144132;-66
2022/01/24 19:26:09;;;;;;;53.40;34.20;;;;;;;-0.56;76.49;101065.77;430099;1273;143299;-67
2022/01/24 19:36:17;;;;;;;51.50;33.10;;;;;;;-0.59;77.00;101079.17;430776;1273;141588;-67
2022/01/24 19:46:23;;;;;;;62.20;35.70;;;;;;;-0.59;76.82;101072.13;430574;1273;143214;-63
2022/01/24 19:56:33;;;;;;;75.70;41.70;;;;;;;-0.64;77.16;101063.84;430652;1273;141882;-63
2022/01/24 20:06:50;;;;;;;62.10;36.00;;;;;;;-0.66;76.96;101059.00;431335;1273;141737;-63
2022/01/24 20:16:57;;;;;;;63.50;37.40;;;;;;;-0.68;77.46;101057.27;429182;1273;141973;-63
2022/01/24 20:27:01;;;;;;;;;;;;;;;-0.73;77.45;101057.08;430499;1273;142460;-64
2022/01/24 20:37:08;;;;;;;64.10;40.10;;;;;;;-0.76;77.64;101051.04;430657;1273;127931;-62
2022/01/24 20:47:14;;;;;;;73.70;40.60;;;;;;;-0.81;78.10;101040.85;429563;1273;142794;-63
2022/01/24 20:57:20;;;;;;;60.80;38.90;;;;;;;-0.85;78.01;101042.39;431136;1273;141259;-63
2022/01/24 21:07:26;;;;;;;63.10;38.70;;;;;;;-0.88;78.28;101037.04;431193;1273;141731;-62
2022/01/24 21:17:31;;;;;;;67.10;42.50;;;;;;;-0.93;79.00;101032.88;430697;1273;142327;-63
2022/01/24 21:27:38;;;;;;;65.80;41.80;;;;;;;-1.04;79.67;101028.50;431400;1273;142084;-63
2022/01/24 21:37:43;;;;;;;;;;;;;;;-1.11;80.35;101018.48;430596;1273;142152;-61
2022/01/24 21:47:49;;;;;;;71.10;44.40;;;;;;;-1.10;80.79;101024.68;432237;1273;128315;-62
2022/01/24 21:57:57;;;;;;;72.20;44.30;;;;;;;-1.10;81.23;101001.65;431203;1273;143293;-61
2022/01/24 22:18:27;;;;;;;73.40;46.40;;;;;;;-1.07;81.77;100976.23;431499;1273;143026;-62
2022/01/24 22:28:34;;;;;;;75.10;48.80;;;;;;;-1.06;82.01;100965.41;431074;1272;142488;-63
2022/01/24 22:38:40;;;;;;;73.90;44.40;;;;;;;-1.04;82.52;100958.38;431948;1273;206275;-63
2022/01/24 22:48:48;;;;;;;83.10;51.20;;;;;;;-1.03;83.00;100954.95;432395;1273;204823;-64
2022/01/24 22:58:54;;;;;;;76.30;48.60;;;;;;;-1.01;83.08;100949.46;431440;1273;142378;-63
2022/01/24 23:09:01;;;;;;;76.70;50.20;;;;;;;-0.98;83.36;100934.86;431849;1274;142428;-65
2022/01/24 23:19:13;;;;;;;80.70;47.60;;;;;;;-0.91;83.33;100928.37;431253;1273;143430;-62
2022/01/24 23:29:23;;;;;;;74.90;47.40;;;;;;;-0.91;83.69;100912.71;430535;1272;143194;-63
2022/01/24 23:39:30;;;;;;;76.30;48.20;;;;;;;-0.92;83.74;100902.05;430133;1273;143772;-61
2022/01/24 23:49:37;;;;;;;75.50;46.60;;;;;;;-0.95;83.81;100895.85;430562;1273;144603;-65
